sensor_id;sensor_type;location;lat;lon;timestamp;temperature;humidity
21502;DHT22;27639;48.674;9.242;2022-08-14T00:01:19;23.10;41.90
21502;DHT22;27639;48.674;9.242;2022-08-14T00:03:45;23.00;41.20
21502;DHT22;27639;48.674;9.242;2022-08-14T00:06:10;23.00;41.30
21502;DHT22;27639;48.674;9.242;2022-08-14T00:08:36;23.00;41.50
21502;DHT22;27639;48.674;9.242;2022-08-14T00:11:01;23.00;41.70
21502;DHT22;27639;48.674;9.242;2022-08-14T00:13:27;22.90;41.60
21502;DHT22;27639;48.674;9.242;2022-08-14T00:15:55;22.90;41.60
21502;DHT22;27639;48.674;9.242;2022-08-14T00:18:23;23.00;42.50
21502;DHT22;27639;48.674;9.242;2022-08-14T00:20:50;23.00;41.90
21502;DHT22;27639;48.674;9.242;2022-08-14T00:23:17;22.90;41.80
21502;DHT22;27639;48.674;9.242;2022-08-14T00:25:50;22.90;41.90
21502;DHT22;27639;48.674;9.242;2022-08-14T00:28:16;22.90;42.10
21502;DHT22;27639;48.674;9.242;2022-08-14T00:30:42;22.80;42.20
21502;DHT22;27639;48.674;9.242;2022-08-14T00:33:08;22.70;42.10
21502;DHT22;27639;48.674;9.242;2022-08-14T00:35:34;22.70;42.10
21502;DHT22;27639;48.674;9.242;2022-08-14T00:38:00;22.70;42.90
21502;DHT22;27639;48.674;9.242;2022-08-14T00:40:26;22.60;42.40
21502;DHT22;27639;48.674;9.242;2022-08-14T00:42:52;22.50;42.50
21502;DHT22;27639;48.674;9.242;2022-08-14T00:45:18;22.50;42.80
21502;DHT22;27639;48.674;9.242;2022-08-14T00:47:46;22.50;42.80
21502;DHT22;27639;48.674;9.242;2022-08-14T00:50:15;22.40;42.90
21502;DHT22;27639;48.674;9.242;2022-08-14T00:52:43;22.40;42.80
21502;DHT22;27639;48.674;9.242;2022-08-14T00:55:10;22.30;43.00
21502;DHT22;27639;48.674;9.242;2022-08-14T00:57:37;22.40;43.00
21502;DHT22;27639;48.674;9.242;2022-08-14T01:00:10;22.40;42.90
21502;DHT22;27639;48.674;9.242;2022-08-14T01:02:38;22.40;42.70
21502;DHT22;27639;48.674;9.242;2022-08-14T01:05:05;22.40;42.70
21502;DHT22;27639;48.674;9.242;2022-08-14T01:07:32;22.40;42.70
21502;DHT22;27639;48.674;9.242;2022-08-14T01:10:00;22.40;42.70
21502;DHT22;27639;48.674;9.242;2022-08-14T01:12:31;22.40;42.70
21502;DHT22;27639;48.674;9.242;2022-08-14T01:15:00;22.40;42.70
21502;DHT22;27639;48.674;9.242;2022-08-14T01:17:28;22.40;42.80
21502;DHT22;27639;48.674;9.242;2022-08-14T01:20:15;22.40;42.80
21502;DHT22;27639;48.674;9.242;2022-08-14T01:22:59;22.40;42.90
21502;DHT22;27639;48.674;9.242;2022-08-14T01:25:24;22.30;43.00
21502;DHT22;27639;48.674;9.242;2022-08-14T01:27:50;22.20;43.20
21502;DHT22;27639;48.674;9.242;2022-08-14T01:30:20;22.10;43.10
21502;DHT22;27639;48.674;9.242;2022-08-14T01:32:48;22.00;43.80
21502;DHT22;27639;48.674;9.242;2022-08-14T01:35:16;22.00;43.50
21502;DHT22;27639;48.674;9.242;2022-08-14T01:37:45;21.90;43.50
21502;DHT22;27639;48.674;9.242;2022-08-14T01:40:14;22.00;43.60
21502;DHT22;27639;48.674;9.242;2022-08-14T01:42:43;22.00;43.40
21502;DHT22;27639;48.674;9.242;2022-08-14T01:45:09;22.00;43.30
21502;DHT22;27639;48.674;9.242;2022-08-14T01:47:38;22.00;43.30
21502;DHT22;27639;48.674;9.242;2022-08-14T01:50:05;22.00;43.50
21502;DHT22;27639;48.674;9.242;2022-08-14T01:52:32;21.90;43.60
21502;DHT22;27639;48.674;9.242;2022-08-14T01:54:59;21.80;43.70
21502;DHT22;27639;48.674;9.242;2022-08-14T01:57:25;21.70;43.70
21502;DHT22;27639;48.674;9.242;2022-08-14T01:59:55;21.70;44.00
21502;DHT22;27639;48.674;9.242;2022-08-14T02:02:21;21.70;44.00
21502;DHT22;27639;48.674;9.242;2022-08-14T02:04:47;21.70;44.10
21502;DHT22;27639;48.674;9.242;2022-08-14T02:07:13;21.70;44.00
21502;DHT22;27639;48.674;9.242;2022-08-14T02:09:38;21.70;44.00
21502;DHT22;27639;48.674;9.242;2022-08-14T02:12:07;21.70;43.90
21502;DHT22;27639;48.674;9.242;2022-08-14T02:14:34;21.70;44.50
21502;DHT22;27639;48.674;9.242;2022-08-14T02:17:00;21.70;44.10
21502;DHT22;27639;48.674;9.242;2022-08-14T02:19:28;21.60;44.20
21502;DHT22;27639;48.674;9.242;2022-08-14T02:21:56;21.50;44.30
21502;DHT22;27639;48.674;9.242;2022-08-14T02:24:25;21.50;44.50
21502;DHT22;27639;48.674;9.242;2022-08-14T02:26:52;21.40;44.40
21502;DHT22;27639;48.674;9.242;2022-08-14T02:29:22;21.40;44.70
21502;DHT22;27639;48.674;9.242;2022-08-14T02:31:51;21.30;44.80
21502;DHT22;27639;48.674;9.242;2022-08-14T02:34:29;21.20;44.90
21502;DHT22;27639;48.674;9.242;2022-08-14T02:36:58;21.20;45.00
21502;DHT22;27639;48.674;9.242;2022-08-14T02:39:27;21.20;45.00
21502;DHT22;27639;48.674;9.242;2022-08-14T02:41:53;21.20;45.10
21502;DHT22;27639;48.674;9.242;2022-08-14T02:44:18;21.20;45.10
21502;DHT22;27639;48.674;9.242;2022-08-14T02:46:46;21.20;45.00
21502;DHT22;27639;48.674;9.242;2022-08-14T02:49:11;21.10;45.00
21502;DHT22;27639;48.674;9.242;2022-08-14T02:51:37;21.10;45.10
21502;DHT22;27639;48.674;9.242;2022-08-14T02:54:08;21.20;45.20
21502;DHT22;27639;48.674;9.242;2022-08-14T02:56:37;21.10;45.10
21502;DHT22;27639;48.674;9.242;2022-08-14T02:59:05;21.10;45.00
21502;DHT22;27639;48.674;9.242;2022-08-14T03:01:33;21.20;45.10
21502;DHT22;27639;48.674;9.242;2022-08-14T03:03:59;21.10;45.10
21502;DHT22;27639;48.674;9.242;2022-08-14T03:06:24;21.10;45.20
21502;DHT22;27639;48.674;9.242;2022-08-14T03:08:52;21.00;45.10
21502;DHT22;27639;48.674;9.242;2022-08-14T03:11:18;21.00;45.00
21502;DHT22;27639;48.674;9.242;2022-08-14T03:13:47;21.10;45.10
21502;DHT22;27639;48.674;9.242;2022-08-14T03:16:21;21.10;45.10
21502;DHT22;27639;48.674;9.242;2022-08-14T03:18:49;21.10;45.10
21502;DHT22;27639;48.674;9.242;2022-08-14T03:21:22;21.00;45.10
21502;DHT22;27639;48.674;9.242;2022-08-14T03:23:50;21.00;45.20
21502;DHT22;27639;48.674;9.242;2022-08-14T03:26:22;20.90;45.40
21502;DHT22;27639;48.674;9.242;2022-08-14T03:28:51;20.90;45.60
21502;DHT22;27639;48.674;9.242;2022-08-14T03:31:17;20.80;45.70
21502;DHT22;27639;48.674;9.242;2022-08-14T03:33:50;20.80;45.70
21502;DHT22;27639;48.674;9.242;2022-08-14T03:36:17;20.80;45.90
21502;DHT22;27639;48.674;9.242;2022-08-14T03:38:46;20.80;45.70
21502;DHT22;27639;48.674;9.242;2022-08-14T03:41:21;20.80;45.70
21502;DHT22;27639;48.674;9.242;2022-08-14T03:43:50;20.70;45.80
21502;DHT22;27639;48.674;9.242;2022-08-14T03:46:16;20.70;45.90
21502;DHT22;27639;48.674;9.242;2022-08-14T03:48:43;20.60;46.00
21502;DHT22;27639;48.674;9.242;2022-08-14T03:51:10;20.50;46.80
21502;DHT22;27639;48.674;9.242;2022-08-14T03:53:40;20.40;46.20
21502;DHT22;27639;48.674;9.242;2022-08-14T03:56:07;20.40;46.20
21502;DHT22;27639;48.674;9.242;2022-08-14T03:58:37;20.40;46.20
21502;DHT22;27639;48.674;9.242;2022-08-14T04:01:03;20.50;46.20
21502;DHT22;27639;48.674;9.242;2022-08-14T04:03:30;20.40;46.20
21502;DHT22;27639;48.674;9.242;2022-08-14T04:05:55;20.40;46.20
21502;DHT22;27639;48.674;9.242;2022-08-14T04:08:21;20.40;46.30
21502;DHT22;27639;48.674;9.242;2022-08-14T04:10:47;20.30;46.40
21502;DHT22;27639;48.674;9.242;2022-08-14T04:13:13;20.20;46.60
21502;DHT22;27639;48.674;9.242;2022-08-14T04:15:46;20.20;46.60
21502;DHT22;27639;48.674;9.242;2022-08-14T04:18:11;20.10;46.60
21502;DHT22;27639;48.674;9.242;2022-08-14T04:20:39;20.10;47.40
21502;DHT22;27639;48.674;9.242;2022-08-14T04:23:05;20.20;46.70
21502;DHT22;27639;48.674;9.242;2022-08-14T04:25:32;20.20;46.60
21502;DHT22;27639;48.674;9.242;2022-08-14T04:27:59;20.20;46.60
21502;DHT22;27639;48.674;9.242;2022-08-14T04:30:25;20.20;46.70
21502;DHT22;27639;48.674;9.242;2022-08-14T04:32:54;20.20;47.40
21502;DHT22;27639;48.674;9.242;2022-08-14T04:35:20;20.20;46.70
21502;DHT22;27639;48.674;9.242;2022-08-14T04:37:46;20.30;47.40
21502;DHT22;27639;48.674;9.242;2022-08-14T04:40:30;20.30;46.60
21502;DHT22;27639;48.674;9.242;2022-08-14T04:43:14;20.30;46.60
21502;DHT22;27639;48.674;9.242;2022-08-14T04:45:58;20.30;47.60
21502;DHT22;27639;48.674;9.242;2022-08-14T04:48:26;20.30;47.10
21502;DHT22;27639;48.674;9.242;2022-08-14T04:50:53;20.20;47.00
21502;DHT22;27639;48.674;9.242;2022-08-14T04:53:23;20.30;47.20
21502;DHT22;27639;48.674;9.242;2022-08-14T04:55:50;20.30;47.20
21502;DHT22;27639;48.674;9.242;2022-08-14T04:58:21;20.40;47.20
21502;DHT22;27639;48.674;9.242;2022-08-14T05:00:50;20.50;47.20
21502;DHT22;27639;48.674;9.242;2022-08-14T05:03:20;20.70;47.30
21502;DHT22;27639;48.674;9.242;2022-08-14T05:05:50;20.90;47.20
21502;DHT22;27639;48.674;9.242;2022-08-14T05:08:16;21.10;47.10
21502;DHT22;27639;48.674;9.242;2022-08-14T05:10:48;21.30;46.90
21502;DHT22;27639;48.674;9.242;2022-08-14T05:13:18;21.40;46.60
21502;DHT22;27639;48.674;9.242;2022-08-14T05:15:44;21.50;46.60
21502;DHT22;27639;48.674;9.242;2022-08-14T05:18:13;21.70;46.50
21502;DHT22;27639;48.674;9.242;2022-08-14T05:20:40;21.90;46.40
21502;DHT22;27639;48.674;9.242;2022-08-14T05:23:11;21.90;46.20
21502;DHT22;27639;48.674;9.242;2022-08-14T05:25:37;21.90;45.80
21502;DHT22;27639;48.674;9.242;2022-08-14T05:28:10;21.90;45.70
21502;DHT22;27639;48.674;9.242;2022-08-14T05:30:37;21.90;45.70
21502;DHT22;27639;48.674;9.242;2022-08-14T05:33:04;21.90;45.70
21502;DHT22;27639;48.674;9.242;2022-08-14T05:35:31;22.10;45.80
21502;DHT22;27639;48.674;9.242;2022-08-14T05:37:58;22.20;45.50
21502;DHT22;27639;48.674;9.242;2022-08-14T05:40:24;22.40;45.30
21502;DHT22;27639;48.674;9.242;2022-08-14T05:42:50;22.50;45.30
21502;DHT22;27639;48.674;9.242;2022-08-14T05:45:16;22.60;45.30
21502;DHT22;27639;48.674;9.242;2022-08-14T05:47:42;22.60;44.80
21502;DHT22;27639;48.674;9.242;2022-08-14T05:50:10;22.70;44.50
21502;DHT22;27639;48.674;9.242;2022-08-14T05:52:36;22.70;44.40
21502;DHT22;27639;48.674;9.242;2022-08-14T05:55:02;22.60;44.70
21502;DHT22;27639;48.674;9.242;2022-08-14T05:57:28;22.60;44.90
21502;DHT22;27639;48.674;9.242;2022-08-14T05:59:54;22.60;45.40
21502;DHT22;27639;48.674;9.242;2022-08-14T06:02:19;22.70;45.50
21502;DHT22;27639;48.674;9.242;2022-08-14T06:04:45;22.70;45.60
21502;DHT22;27639;48.674;9.242;2022-08-14T06:07:13;22.90;45.70
21502;DHT22;27639;48.674;9.242;2022-08-14T06:09:39;23.00;45.70
21502;DHT22;27639;48.674;9.242;2022-08-14T06:12:05;23.10;45.90
21502;DHT22;27639;48.674;9.242;2022-08-14T06:14:31;23.20;45.90
21502;DHT22;27639;48.674;9.242;2022-08-14T06:16:56;23.30;45.80
21502;DHT22;27639;48.674;9.242;2022-08-14T06:19:22;23.40;45.10
21502;DHT22;27639;48.674;9.242;2022-08-14T06:21:47;23.50;44.90
21502;DHT22;27639;48.674;9.242;2022-08-14T06:24:13;23.60;44.80
21502;DHT22;27639;48.674;9.242;2022-08-14T06:26:39;23.70;44.90
21502;DHT22;27639;48.674;9.242;2022-08-14T06:29:04;23.70;44.90
21502;DHT22;27639;48.674;9.242;2022-08-14T06:31:30;23.70;45.20
21502;DHT22;27639;48.674;9.242;2022-08-14T06:33:55;23.80;44.70
21502;DHT22;27639;48.674;9.242;2022-08-14T06:36:21;23.80;44.50
21502;DHT22;27639;48.674;9.242;2022-08-14T06:38:47;23.80;44.30
21502;DHT22;27639;48.674;9.242;2022-08-14T06:41:12;23.80;44.20
21502;DHT22;27639;48.674;9.242;2022-08-14T06:43:38;23.80;45.30
21502;DHT22;27639;48.674;9.242;2022-08-14T06:46:03;23.70;45.40
21502;DHT22;27639;48.674;9.242;2022-08-14T06:48:30;23.70;44.90
21502;DHT22;27639;48.674;9.242;2022-08-14T06:50:55;23.60;44.90
21502;DHT22;27639;48.674;9.242;2022-08-14T06:53:21;23.60;44.40
21502;DHT22;27639;48.674;9.242;2022-08-14T06:55:48;23.50;45.20
21502;DHT22;27639;48.674;9.242;2022-08-14T06:58:15;23.60;45.30
21502;DHT22;27639;48.674;9.242;2022-08-14T07:00:42;23.70;45.40
21502;DHT22;27639;48.674;9.242;2022-08-14T07:03:28;23.80;45.40
21502;DHT22;27639;48.674;9.242;2022-08-14T07:06:13;23.80;45.40
21502;DHT22;27639;48.674;9.242;2022-08-14T07:08:39;24.10;45.20
21502;DHT22;27639;48.674;9.242;2022-08-14T07:11:06;24.20;44.80
21502;DHT22;27639;48.674;9.242;2022-08-14T07:13:32;24.40;44.60
21502;DHT22;27639;48.674;9.242;2022-08-14T07:15:58;24.60;44.50
21502;DHT22;27639;48.674;9.242;2022-08-14T07:18:26;24.60;44.60
21502;DHT22;27639;48.674;9.242;2022-08-14T07:20:53;24.60;44.50
21502;DHT22;27639;48.674;9.242;2022-08-14T07:23:19;24.70;44.30
21502;DHT22;27639;48.674;9.242;2022-08-14T07:25:46;24.90;44.60
21502;DHT22;27639;48.674;9.242;2022-08-14T07:28:14;25.00;44.40
21502;DHT22;27639;48.674;9.242;2022-08-14T07:30:41;25.00;44.30
21502;DHT22;27639;48.674;9.242;2022-08-14T07:33:08;25.20;43.90
21502;DHT22;27639;48.674;9.242;2022-08-14T07:35:35;25.30;44.00
21502;DHT22;27639;48.674;9.242;2022-08-14T07:38:02;25.50;43.00
21502;DHT22;27639;48.674;9.242;2022-08-14T07:40:28;25.60;42.70
21502;DHT22;27639;48.674;9.242;2022-08-14T07:42:54;25.80;42.60
21502;DHT22;27639;48.674;9.242;2022-08-14T07:45:20;25.80;42.20
21502;DHT22;27639;48.674;9.242;2022-08-14T07:47:46;26.00;42.10
21502;DHT22;27639;48.674;9.242;2022-08-14T07:50:15;26.10;41.70
21502;DHT22;27639;48.674;9.242;2022-08-14T07:52:42;26.20;41.50
21502;DHT22;27639;48.674;9.242;2022-08-14T07:55:10;26.30;41.10
21502;DHT22;27639;48.674;9.242;2022-08-14T07:57:37;26.50;40.80
21502;DHT22;27639;48.674;9.242;2022-08-14T08:00:10;26.60;40.60
21502;DHT22;27639;48.674;9.242;2022-08-14T08:02:39;26.60;40.30
21502;DHT22;27639;48.674;9.242;2022-08-14T08:05:05;26.80;39.90
21502;DHT22;27639;48.674;9.242;2022-08-14T08:07:32;26.90;39.60
21502;DHT22;27639;48.674;9.242;2022-08-14T08:12:49;27.10;39.10
21502;DHT22;27639;48.674;9.242;2022-08-14T08:15:15;27.10;38.90
21502;DHT22;27639;48.674;9.242;2022-08-14T08:17:41;27.20;38.50
21502;DHT22;27639;48.674;9.242;2022-08-14T08:20:11;27.30;38.10
21502;DHT22;27639;48.674;9.242;2022-08-14T08:22:39;27.30;37.80
21502;DHT22;27639;48.674;9.242;2022-08-14T08:25:08;27.20;38.00
21502;DHT22;27639;48.674;9.242;2022-08-14T08:27:33;27.30;38.30
21502;DHT22;27639;48.674;9.242;2022-08-14T08:30:07;27.40;38.20
21502;DHT22;27639;48.674;9.242;2022-08-14T08:32:41;27.50;37.70
21502;DHT22;27639;48.674;9.242;2022-08-14T08:35:25;27.50;37.60
21502;DHT22;27639;48.674;9.242;2022-08-14T08:37:53;27.70;37.70
21502;DHT22;27639;48.674;9.242;2022-08-14T08:40:33;27.90;38.10
21502;DHT22;27639;48.674;9.242;2022-08-14T08:43:06;28.00;37.80
21502;DHT22;27639;48.674;9.242;2022-08-14T08:45:33;27.90;36.80
21502;DHT22;27639;48.674;9.242;2022-08-14T08:48:00;28.00;36.90
21502;DHT22;27639;48.674;9.242;2022-08-14T08:50:29;28.10;37.10
21502;DHT22;27639;48.674;9.242;2022-08-14T08:52:59;28.40;37.20
21502;DHT22;27639;48.674;9.242;2022-08-14T08:55:32;28.60;36.00
21502;DHT22;27639;48.674;9.242;2022-08-14T08:58:05;28.70;35.50
21502;DHT22;27639;48.674;9.242;2022-08-14T09:00:32;28.90;35.40
21502;DHT22;27639;48.674;9.242;2022-08-14T09:03:10;29.00;34.70
21502;DHT22;27639;48.674;9.242;2022-08-14T09:05:49;29.00;35.20
21502;DHT22;27639;48.674;9.242;2022-08-14T09:08:16;29.10;34.80
21502;DHT22;27639;48.674;9.242;2022-08-14T09:10:42;29.10;34.60
21502;DHT22;27639;48.674;9.242;2022-08-14T09:13:08;29.20;34.30
21502;DHT22;27639;48.674;9.242;2022-08-14T09:15:40;29.30;33.90
21502;DHT22;27639;48.674;9.242;2022-08-14T09:18:08;29.40;34.20
21502;DHT22;27639;48.674;9.242;2022-08-14T09:20:34;29.40;34.00
21502;DHT22;27639;48.674;9.242;2022-08-14T09:23:01;29.50;33.70
21502;DHT22;27639;48.674;9.242;2022-08-14T09:25:28;29.60;33.60
21502;DHT22;27639;48.674;9.242;2022-08-14T09:27:54;29.70;33.40
21502;DHT22;27639;48.674;9.242;2022-08-14T09:30:20;29.80;33.40
21502;DHT22;27639;48.674;9.242;2022-08-14T09:38:48;30.00;32.90
21502;DHT22;27639;48.674;9.242;2022-08-14T09:47:42;30.20;31.90
21502;DHT22;27639;48.674;9.242;2022-08-14T09:52:53;30.40;32.10
21502;DHT22;27639;48.674;9.242;2022-08-14T09:55:21;30.50;32.20
21502;DHT22;27639;48.674;9.242;2022-08-14T09:57:49;30.60;31.70
21502;DHT22;27639;48.674;9.242;2022-08-14T10:00:15;30.70;30.90
21502;DHT22;27639;48.674;9.242;2022-08-14T10:02:56;30.80;31.30
21502;DHT22;27639;48.674;9.242;2022-08-14T10:05:32;30.90;31.10
21502;DHT22;27639;48.674;9.242;2022-08-14T10:07:58;30.90;31.20
21502;DHT22;27639;48.674;9.242;2022-08-14T10:12:53;31.20;30.20
21502;DHT22;27639;48.674;9.242;2022-08-14T10:15:21;31.20;30.20
21502;DHT22;27639;48.674;9.242;2022-08-14T10:17:49;31.30;29.80
21502;DHT22;27639;48.674;9.242;2022-08-14T10:20:39;31.30;30.00
21502;DHT22;27639;48.674;9.242;2022-08-14T10:23:14;31.40;29.90
21502;DHT22;27639;48.674;9.242;2022-08-14T10:25:43;31.50;28.90
21502;DHT22;27639;48.674;9.242;2022-08-14T10:28:10;31.40;29.10
21502;DHT22;27639;48.674;9.242;2022-08-14T10:30:41;31.40;28.90
21502;DHT22;27639;48.674;9.242;2022-08-14T10:33:07;31.60;28.50
21502;DHT22;27639;48.674;9.242;2022-08-14T10:35:42;31.60;28.10
21502;DHT22;27639;48.674;9.242;2022-08-14T10:38:08;31.60;28.10
21502;DHT22;27639;48.674;9.242;2022-08-14T10:40:35;31.60;28.40
21502;DHT22;27639;48.674;9.242;2022-08-14T10:43:01;31.60;28.20
21502;DHT22;27639;48.674;9.242;2022-08-14T10:45:32;31.70;28.10
21502;DHT22;27639;48.674;9.242;2022-08-14T10:47:58;31.70;28.60
21502;DHT22;27639;48.674;9.242;2022-08-14T10:50:31;31.70;27.80
21502;DHT22;27639;48.674;9.242;2022-08-14T10:52:57;31.80;28.70
21502;DHT22;27639;48.674;9.242;2022-08-14T10:55:39;31.90;28.40
21502;DHT22;27639;48.674;9.242;2022-08-14T10:58:08;31.80;28.70
21502;DHT22;27639;48.674;9.242;2022-08-14T11:00:38;31.90;28.20
21502;DHT22;27639;48.674;9.242;2022-08-14T11:03:10;31.80;28.40
21502;DHT22;27639;48.674;9.242;2022-08-14T11:05:45;32.00;28.70
21502;DHT22;27639;48.674;9.242;2022-08-14T11:08:12;32.10;28.00
21502;DHT22;27639;48.674;9.242;2022-08-14T11:10:49;32.10;28.10
21502;DHT22;27639;48.674;9.242;2022-08-14T11:13:20;32.10;28.50
21502;DHT22;27639;48.674;9.242;2022-08-14T11:15:46;32.10;27.90
21502;DHT22;27639;48.674;9.242;2022-08-14T11:18:13;32.30;27.10
21502;DHT22;27639;48.674;9.242;2022-08-14T11:20:47;32.30;27.60
21502;DHT22;27639;48.674;9.242;2022-08-14T11:23:14;32.20;27.40
21502;DHT22;27639;48.674;9.242;2022-08-14T11:25:43;32.30;28.10
21502;DHT22;27639;48.674;9.242;2022-08-14T11:28:11;32.40;27.50
21502;DHT22;27639;48.674;9.242;2022-08-14T11:30:41;32.40;27.30
21502;DHT22;27639;48.674;9.242;2022-08-14T11:33:09;32.50;27.40
21502;DHT22;27639;48.674;9.242;2022-08-14T11:35:36;32.50;27.80
21502;DHT22;27639;48.674;9.242;2022-08-14T11:38:05;32.70;27.10
21502;DHT22;27639;48.674;9.242;2022-08-14T11:40:36;32.70;26.90
21502;DHT22;27639;48.674;9.242;2022-08-14T11:43:05;32.80;26.60
21502;DHT22;27639;48.674;9.242;2022-08-14T11:45:34;32.80;26.30
21502;DHT22;27639;48.674;9.242;2022-08-14T11:50:47;32.90;26.00
21502;DHT22;27639;48.674;9.242;2022-08-14T11:53:27;32.70;26.10
21502;DHT22;27639;48.674;9.242;2022-08-14T11:55:59;32.70;26.40
21502;DHT22;27639;48.674;9.242;2022-08-14T11:58:36;32.70;26.20
21502;DHT22;27639;48.674;9.242;2022-08-14T12:01:07;32.70;25.80
21502;DHT22;27639;48.674;9.242;2022-08-14T12:03:35;32.80;26.10
21502;DHT22;27639;48.674;9.242;2022-08-14T12:06:19;32.90;25.80
21502;DHT22;27639;48.674;9.242;2022-08-14T12:08:45;33.00;25.80
21502;DHT22;27639;48.674;9.242;2022-08-14T12:11:12;33.00;26.00
21502;DHT22;27639;48.674;9.242;2022-08-14T12:13:39;33.00;25.80
21502;DHT22;27639;48.674;9.242;2022-08-14T12:16:10;33.10;25.50
21502;DHT22;27639;48.674;9.242;2022-08-14T12:18:44;33.10;24.60
21502;DHT22;27639;48.674;9.242;2022-08-14T12:23:45;33.10;24.00
21502;DHT22;27639;48.674;9.242;2022-08-14T12:26:16;33.10;24.10
21502;DHT22;27639;48.674;9.242;2022-08-14T12:28:48;33.20;24.00
21502;DHT22;27639;48.674;9.242;2022-08-14T12:31:16;33.20;24.10
21502;DHT22;27639;48.674;9.242;2022-08-14T12:33:58;33.30;24.20
21502;DHT22;27639;48.674;9.242;2022-08-14T12:36:27;33.40;24.00
21502;DHT22;27639;48.674;9.242;2022-08-14T12:39:00;33.50;23.80
21502;DHT22;27639;48.674;9.242;2022-08-14T12:41:27;33.60;23.60
21502;DHT22;27639;48.674;9.242;2022-08-14T12:43:58;33.70;23.50
21502;DHT22;27639;48.674;9.242;2022-08-14T12:46:40;33.70;23.60
21502;DHT22;27639;48.674;9.242;2022-08-14T12:49:13;33.70;23.70
21502;DHT22;27639;48.674;9.242;2022-08-14T12:51:40;33.70;24.10
21502;DHT22;27639;48.674;9.242;2022-08-14T12:54:18;33.70;23.40
21502;DHT22;27639;48.674;9.242;2022-08-14T12:56:47;33.80;23.20
21502;DHT22;27639;48.674;9.242;2022-08-14T12:59:13;33.70;23.60
21502;DHT22;27639;48.674;9.242;2022-08-14T13:01:40;33.70;23.70
21502;DHT22;27639;48.674;9.242;2022-08-14T13:04:11;33.70;23.60
21502;DHT22;27639;48.674;9.242;2022-08-14T13:06:41;33.80;23.30
21502;DHT22;27639;48.674;9.242;2022-08-14T13:09:11;33.70;23.30
21502;DHT22;27639;48.674;9.242;2022-08-14T13:11:45;33.70;23.70
21502;DHT22;27639;48.674;9.242;2022-08-14T13:14:12;33.70;23.60
21502;DHT22;27639;48.674;9.242;2022-08-14T13:16:40;33.70;23.70
21502;DHT22;27639;48.674;9.242;2022-08-14T13:19:10;33.80;23.80
21502;DHT22;27639;48.674;9.242;2022-08-14T13:21:38;33.80;23.90
21502;DHT22;27639;48.674;9.242;2022-08-14T13:24:04;33.90;24.00
21502;DHT22;27639;48.674;9.242;2022-08-14T13:26:31;33.90;23.50
21502;DHT22;27639;48.674;9.242;2022-08-14T13:28:59;33.90;23.40
21502;DHT22;27639;48.674;9.242;2022-08-14T13:31:29;33.90;23.10
21502;DHT22;27639;48.674;9.242;2022-08-14T13:33:57;34.00;23.30
21502;DHT22;27639;48.674;9.242;2022-08-14T13:36:25;34.00;23.30
21502;DHT22;27639;48.674;9.242;2022-08-14T13:38:52;34.00;22.70
21502;DHT22;27639;48.674;9.242;2022-08-14T13:41:19;34.20;22.80
21502;DHT22;27639;48.674;9.242;2022-08-14T13:43:48;34.30;22.80
21502;DHT22;27639;48.674;9.242;2022-08-14T13:46:18;34.30;22.50
21502;DHT22;27639;48.674;9.242;2022-08-14T13:48:45;34.30;22.10
21502;DHT22;27639;48.674;9.242;2022-08-14T13:51:11;34.40;21.40
21502;DHT22;27639;48.674;9.242;2022-08-14T13:53:44;34.30;21.60
21502;DHT22;27639;48.674;9.242;2022-08-14T13:56:10;34.30;21.90
21502;DHT22;27639;48.674;9.242;2022-08-14T13:58:37;34.30;21.80
21502;DHT22;27639;48.674;9.242;2022-08-14T14:01:03;34.30;21.40
21502;DHT22;27639;48.674;9.242;2022-08-14T14:03:33;34.30;21.60
21502;DHT22;27639;48.674;9.242;2022-08-14T14:06:02;34.30;22.00
21502;DHT22;27639;48.674;9.242;2022-08-14T14:08:32;34.30;22.40
21502;DHT22;27639;48.674;9.242;2022-08-14T14:11:01;34.30;22.20
21502;DHT22;27639;48.674;9.242;2022-08-14T14:13:28;34.30;22.30
21502;DHT22;27639;48.674;9.242;2022-08-14T14:15:56;34.30;22.20
21502;DHT22;27639;48.674;9.242;2022-08-14T14:18:25;34.30;22.00
21502;DHT22;27639;48.674;9.242;2022-08-14T14:20:52;34.30;21.80
21502;DHT22;27639;48.674;9.242;2022-08-14T14:23:18;34.30;22.10
21502;DHT22;27639;48.674;9.242;2022-08-14T14:25:45;34.30;22.30
21502;DHT22;27639;48.674;9.242;2022-08-14T14:28:15;34.30;21.90
21502;DHT22;27639;48.674;9.242;2022-08-14T14:30:45;34.30;21.90
21502;DHT22;27639;48.674;9.242;2022-08-14T14:33:12;34.30;21.90
21502;DHT22;27639;48.674;9.242;2022-08-14T14:35:43;34.30;22.20
21502;DHT22;27639;48.674;9.242;2022-08-14T14:38:13;34.30;22.30
21502;DHT22;27639;48.674;9.242;2022-08-14T14:40:41;34.30;22.40
21502;DHT22;27639;48.674;9.242;2022-08-14T14:43:10;34.30;22.50
21502;DHT22;27639;48.674;9.242;2022-08-14T14:45:36;34.30;22.50
21502;DHT22;27639;48.674;9.242;2022-08-14T14:48:06;34.30;22.30
21502;DHT22;27639;48.674;9.242;2022-08-14T14:50:32;34.40;22.10
21502;DHT22;27639;48.674;9.242;2022-08-14T14:52:58;34.30;21.90
21502;DHT22;27639;48.674;9.242;2022-08-14T14:55:24;34.10;21.80
21502;DHT22;27639;48.674;9.242;2022-08-14T14:57:52;34.00;21.80
21502;DHT22;27639;48.674;9.242;2022-08-14T15:00:18;34.00;21.90
21502;DHT22;27639;48.674;9.242;2022-08-14T15:02:47;34.10;22.80
21502;DHT22;27639;48.674;9.242;2022-08-14T15:05:14;34.10;22.10
21502;DHT22;27639;48.674;9.242;2022-08-14T15:07:42;34.10;22.20
21502;DHT22;27639;48.674;9.242;2022-08-14T15:10:10;34.10;22.10
21502;DHT22;27639;48.674;9.242;2022-08-14T15:12:35;34.20;22.10
21502;DHT22;27639;48.674;9.242;2022-08-14T15:15:02;34.00;22.20
21502;DHT22;27639;48.674;9.242;2022-08-14T15:17:28;33.90;22.30
21502;DHT22;27639;48.674;9.242;2022-08-14T15:20:00;33.90;22.40
21502;DHT22;27639;48.674;9.242;2022-08-14T15:22:28;33.90;22.40
21502;DHT22;27639;48.674;9.242;2022-08-14T15:24:54;33.90;22.40
21502;DHT22;27639;48.674;9.242;2022-08-14T15:27:19;33.90;23.10
21502;DHT22;27639;48.674;9.242;2022-08-14T15:29:45;33.80;22.50
21502;DHT22;27639;48.674;9.242;2022-08-14T15:32:11;33.80;22.60
21502;DHT22;27639;48.674;9.242;2022-08-14T15:34:36;33.80;22.40
21502;DHT22;27639;48.674;9.242;2022-08-14T15:37:04;33.90;22.30
21502;DHT22;27639;48.674;9.242;2022-08-14T15:39:31;33.90;22.40
21502;DHT22;27639;48.674;9.242;2022-08-14T15:41:57;33.90;22.10
21502;DHT22;27639;48.674;9.242;2022-08-14T15:44:25;33.90;22.30
21502;DHT22;27639;48.674;9.242;2022-08-14T15:46:51;33.80;22.90
21502;DHT22;27639;48.674;9.242;2022-08-14T15:49:17;33.80;22.50
21502;DHT22;27639;48.674;9.242;2022-08-14T15:51:43;33.80;22.60
21502;DHT22;27639;48.674;9.242;2022-08-14T15:54:09;33.80;22.60
21502;DHT22;27639;48.674;9.242;2022-08-14T15:56:35;33.70;22.80
21502;DHT22;27639;48.674;9.242;2022-08-14T15:59:02;33.70;23.00
21502;DHT22;27639;48.674;9.242;2022-08-14T16:01:27;33.70;22.80
21502;DHT22;27639;48.674;9.242;2022-08-14T16:03:54;33.70;23.10